Time;durP1;ratioP1;P1;durP2;ratioP2;P2;SDS_P1;SDS_P2;PMS_P1;PMS_P2;Temp;Humidity;BMP_temperature;BMP_pressure;BME280_temperature;BME280_humidity;BME280_pressure;Samples;Min_cycle;Max_cycle;Signal;HPM_P1;HPM_P2
2022/03/01 00:00:01;;;;;;;5.22;3.83;;;;;;;-0.23;53.62;100908.95;1712524;83;21555;-78
2022/03/01 00:02:28;;;;;;;7.25;3.90;;;;;;;-0.27;53.68;100892.86;1711298;83;22183;-78
2022/03/01 00:04:54;;;;;;;4.17;3.60;;;;;;;-0.26;53.86;100902.39;1747059;81;21093;-79
2022/03/01 00:07:21;;;;;;;7.70;3.62;;;;;;;-0.30;53.90;100908.27;1743931;80;21051;-78
2022/03/01 00:09:49;;;;;;;5.47;4.17;;;;;;;-0.31;54.17;100897.06;1740987;82;21023;-78
2022/03/01 00:12:16;;;;;;;5.60;3.42;;;;;;;-0.35;54.09;100902.08;1734036;82;21141;-78
2022/03/01 00:14:42;;;;;;;4.90;3.87;;;;;;;-0.38;54.23;100899.00;1726545;82;22036;-78
2022/03/01 00:17:08;;;;;;;5.60;3.47;;;;;;;-0.37;54.33;100891.69;1745870;82;21067;-78
2022/03/01 00:19:35;;;;;;;4.08;3.65;;;;;;;-0.40;54.43;100884.72;1707945;83;21102;-78
2022/03/01 00:22:02;;;;;;;4.87;3.52;;;;;;;-0.40;54.64;100877.39;1745890;81;21608;-78
2022/03/01 00:24:29;;;;;;;4.05;3.65;;;;;;;-0.42;54.55;100883.80;1731141;82;21139;-79
2022/03/01 00:26:56;;;;;;;4.80;4.28;;;;;;;-0.42;54.59;100878.63;1720470;82;21134;-77
2022/03/01 00:29:22;;;;;;;4.12;3.75;;;;;;;-0.42;54.49;100881.61;1686335;83;21596;-78
2022/03/01 00:31:49;;;;;;;5.12;3.77;;;;;;;-0.43;54.63;100876.86;1734852;80;21087;-78
2022/03/01 00:34:15;;;;;;;3.75;3.45;;;;;;;-0.47;54.70;100869.85;1716895;83;21693;-77
2022/03/01 00:36:41;;;;;;;5.37;3.52;;;;;;;-0.48;54.86;100869.80;1694733;82;21126;-77
2022/03/01 00:39:08;;;;;;;4.25;3.80;;;;;;;-0.46;54.87;100877.19;1744478;82;21088;-78
2022/03/01 00:41:34;;;;;;;3.77;3.42;;;;;;;-0.49;54.97;100874.07;1725357;82;22043;-78
2022/03/01 00:44:01;;;;;;;7.50;4.60;;;;;;;-0.48;55.03;100870.67;1726282;82;21078;-78
2022/03/01 00:46:28;;;;;;;4.17;3.63;;;;;;;-0.51;55.03;100873.15;1744948;82;21124;-78
2022/03/01 00:48:55;;;;;;;3.60;3.30;;;;;;;-0.51;55.06;100874.87;1744606;82;21101;-78
2022/03/01 00:51:21;;;;;;;3.70;3.30;;;;;;;-0.51;55.17;100877.03;1744493;82;21628;-78
2022/03/01 00:53:48;;;;;;;4.78;3.40;;;;;;;-0.52;55.44;100868.83;1739712;80;21062;-78
2022/03/01 00:56:14;;;;;;;6.05;3.80;;;;;;;-0.51;55.47;100873.15;1733999;82;21664;-78
2022/03/01 00:58:40;;;;;;;5.85;3.60;;;;;;;-0.53;55.45;100872.23;1733864;82;21134;-78
2022/03/01 01:01:07;;;;;;;4.50;3.70;;;;;;;-0.55;55.52;100876.48;1734152;80;21120;-78
2022/03/01 01:03:33;;;;;;;4.03;3.60;;;;;;;-0.60;55.52;100874.16;1733871;82;21657;-78
2022/03/01 01:06:02;;;;;;;4.45;3.70;;;;;;;-0.60;55.82;100868.56;1734186;82;21082;-78
2022/03/01 01:08:28;;;;;;;3.80;3.50;;;;;;;-0.63;56.13;100869.75;1735280;82;21063;-79
2022/03/01 01:10:55;;;;;;;3.83;3.35;;;;;;;-0.66;56.11;100876.53;1715416;80;21052;-78
2022/03/01 01:13:21;;;;;;;3.70;3.35;;;;;;;-0.68;56.39;100872.61;1720843;81;21825;-77
2022/03/01 01:15:47;;;;;;;4.60;3.52;;;;;;;-0.71;56.42;100876.80;1711342;82;21067;-78
2022/03/01 01:18:14;;;;;;;4.75;3.67;;;;;;;-0.70;56.47;100870.81;1714823;82;21665;-78
2022/03/01 01:20:40;;;;;;;4.92;3.50;;;;;;;-0.71;56.62;100876.80;1678517;83;21067;-78
2022/03/01 01:23:09;;;;;;;4.72;3.83;;;;;;;-0.73;56.70;100873.30;1713107;82;21043;-78
2022/03/01 01:25:35;;;;;;;5.40;4.08;;;;;;;-0.78;56.80;100876.59;1714204;82;21160;-78
2022/03/01 01:28:02;;;;;;;4.60;4.20;;;;;;;-0.82;56.71;100879.91;1711086;82;21540;-78
2022/03/01 01:30:31;;;;;;;5.20;3.62;;;;;;;-0.83;56.85;100878.14;1680126;83;21089;-80
2022/03/01 01:32:58;;;;;;;3.80;3.27;;;;;;;-0.84;56.79;100882.86;1684518;82;21058;-77
2022/03/01 01:35:27;;;;;;;4.90;3.65;;;;;;;-0.83;57.02;100878.14;1676124;84;21090;-78
2022/03/01 01:37:54;;;;;;;4.35;3.83;;;;;;;-0.80;56.91;100883.84;1676577;84;21989;-77
2022/03/01 01:40:24;;;;;;;8.10;4.05;;;;;;;-0.80;56.86;100886.00;1680427;84;21070;-78
2022/03/01 01:42:51;;;;;;;5.78;3.77;;;;;;;-0.79;57.08;100876.53;1711819;82;21558;-77
2022/03/01 01:45:20;;;;;;;5.40;3.67;;;;;;;-0.82;57.37;100873.45;1711826;82;21126;-78
2022/03/01 01:47:47;;;;;;;5.17;3.95;;;;;;;-0.85;57.69;100873.34;1730744;80;21126;-78
2022/03/01 01:50:14;;;;;;;4.40;4.00;;;;;;;-0.88;57.64;100877.11;1711551;82;21756;-78
2022/03/01 01:52:40;;;;;;;6.37;4.15;;;;;;;-0.90;57.97;100871.02;1734544;80;22331;-78
2022/03/01 01:55:07;;;;;;;5.60;3.55;;;;;;;-0.92;58.07;100876.55;1695657;82;21158;-78
2022/03/01 01:57:33;;;;;;;4.95;3.72;;;;;;;-0.92;58.35;100872.68;1684964;85;21113;-78
2022/03/01 02:00:01;;;;;;;5.65;3.80;;;;;;;-0.94;58.35;100878.22;1710964;81;21078;-78
2022/03/01 02:02:27;;;;;;;5.75;4.15;;;;;;;-0.95;58.70;100879.90;1711244;83;21524;-78
2022/03/01 02:04:53;;;;;;;6.97;4.10;;;;;;;-0.96;58.90;100885.02;1732178;82;21144;-79
2022/03/01 02:07:20;;;;;;;4.47;4.08;;;;;;;-1.00;59.15;100877.58;1739424;82;21484;-78
2022/03/01 02:09:46;;;;;;;15.18;4.05;;;;;;;-1.01;59.47;100885.27;1738828;82;21164;-78
2022/03/01 02:12:13;;;;;;;4.65;4.25;;;;;;;-1.03;59.59;100876.59;1744761;82;22094;-78
2022/03/01 02:14:40;;;;;;;7.08;4.30;;;;;;;-1.02;59.80;100881.81;1757991;81;21474;-79
2022/03/01 02:17:08;;;;;;;4.90;4.40;;;;;;;-1.02;60.06;100875.78;1742192;82;21628;-78
2022/03/01 02:19:35;;;;;;;5.35;4.15;;;;;;;-1.03;60.35;100874.02;1743424;82;21008;-78
2022/03/01 02:22:02;;;;;;;5.22;4.37;;;;;;;-1.04;60.58;100874.83;1707464;83;21057;-78
2022/03/01 02:24:30;;;;;;;4.92;3.70;;;;;;;-1.02;60.90;100875.78;1747013;82;21159;-78
2022/03/01 02:27:02;;;;;;;6.95;4.35;;;;;;;-1.01;61.45;100874.94;1747268;82;21102;-78
2022/03/01 02:29:29;;;;;;;4.45;4.08;;;;;;;-1.02;61.91;100870.61;1748035;82;21013;-78
2022/03/01 02:31:58;;;;;;;4.67;3.95;;;;;;;-1.03;62.34;100867.13;1751705;80;21550;-78
2022/03/01 02:34:24;;;;;;;4.72;4.28;;;;;;;-1.03;63.17;100868.84;1712995;83;21640;-78
2022/03/01 02:36:51;;;;;;;6.75;4.53;;;;;;;-1.07;63.90;100867.86;1712759;83;21050;-78
2022/03/01 02:39:17;;;;;;;4.75;4.15;;;;;;;-1.12;64.37;100862.53;1713297;83;21825;-78
2022/03/01 02:41:45;;;;;;;6.72;4.37;;;;;;;-1.14;64.65;100865.48;1713002;83;21039;-78
2022/03/01 02:44:12;;;;;;;6.92;4.42;;;;;;;-1.14;65.03;100864.19;1717703;80;21117;-78
2022/03/01 02:46:39;;;;;;;5.62;5.08;;;;;;;-1.12;65.46;100857.37;1741560;82;21050;-78
2022/03/01 02:49:06;;;;;;;8.70;5.00;;;;;;;-1.13;66.23;100858.22;1741399;82;21324;-78
2022/03/01 02:51:34;;;;;;;6.25;5.12;;;;;;;-1.17;68.12;100867.95;1741287;82;22419;-78
2022/03/01 02:54:00;;;;;;;7.20;4.72;;;;;;;-1.26;68.58;100865.07;1757746;81;21039;-77
2022/03/01 02:56:27;;;;;;;5.22;4.72;;;;;;;-1.30;68.23;100860.61;1747318;80;21822;-78
2022/03/01 02:58:55;;;;;;;6.15;5.12;;;;;;;-1.32;68.39;100866.14;1747331;82;21071;-78
2022/03/01 03:01:23;;;;;;;9.35;5.17;;;;;;;-1.32;68.66;100866.14;1744754;82;21055;-78
2022/03/01 03:03:49;;;;;;;6.67;5.60;;;;;;;-1.35;68.75;100859.14;1748012;82;21397;-78
2022/03/01 03:06:17;;;;;;;5.37;4.42;;;;;;;-1.34;69.55;100858.75;1748493;82;21595;-77
2022/03/01 03:08:44;;;;;;;5.78;4.90;;;;;;;-1.38;69.34;100860.74;1742041;82;21078;-78
2022/03/01 03:11:10;;;;;;;7.65;5.50;;;;;;;-1.37;69.53;100857.35;1743276;81;21074;-78
2022/03/01 03:13:37;;;;;;;6.47;5.00;;;;;;;-1.38;69.81;100847.83;1751153;81;21114;-78
2022/03/01 03:16:04;;;;;;;6.95;5.05;;;;;;;-1.38;69.91;100850.42;1753839;81;21645;-77
2022/03/01 03:18:33;;;;;;;6.70;4.65;;;;;;;-1.37;69.97;100846.59;1753561;81;21027;-78
2022/03/01 03:20:59;;;;;;;6.67;4.92;;;;;;;-1.36;70.03;100846.17;1751216;81;21050;-78
2022/03/01 03:23:25;;;;;;;7.05;4.90;;;;;;;-1.36;70.33;100841.91;1752244;81;21079;-78
2022/03/01 03:25:52;;;;;;;6.35;5.30;;;;;;;-1.39;70.29;100845.67;1748110;81;21050;-78
2022/03/01 03:28:18;;;;;;;6.97;5.40;;;;;;;-1.40;70.55;100845.62;1747993;82;21543;-78
2022/03/01 03:30:45;;;;;;;9.80;5.17;;;;;;;-1.46;70.72;100842.81;1750020;81;21056;-76
2022/03/01 03:33:11;;;;;;;7.78;4.78;;;;;;;-1.45;70.88;100845.87;1730673;81;21652;-76
2022/03/01 03:35:39;;;;;;;6.53;5.50;;;;;;;-1.47;71.03;100839.78;1743116;81;21476;-76
2022/03/01 03:38:05;;;;;;;5.75;5.08;;;;;;;-1.44;71.18;100845.06;1753603;81;21087;-76
2022/03/01 03:40:31;;;;;;;5.90;4.58;;;;;;;-1.43;71.23;100834.79;1753870;81;22309;-75
2022/03/01 03:42:58;;;;;;;6.42;5.42;;;;;;;-1.41;71.45;100830.55;1752636;81;21047;-74
2022/03/01 03:45:24;;;;;;;6.47;5.15;;;;;;;-1.40;71.72;100836.58;1753970;81;22056;-77
2022/03/01 03:47:51;;;;;;;6.00;5.28;;;;;;;-1.42;71.68;100831.78;1749994;81;21035;-78
2022/03/01 03:50:18;;;;;;;5.62;4.85;;;;;;;-1.42;71.71;100827.91;1753649;81;21004;-78
2022/03/01 03:52:44;;;;;;;7.28;5.20;;;;;;;-1.45;71.75;100826.09;1756194;81;21783;-77
2022/03/01 03:55:11;;;;;;;8.58;4.35;;;;;;;-1.42;71.78;100830.49;1763546;80;21049;-78
2022/03/01 03:57:37;;;;;;;10.58;5.22;;;;;;;-1.44;71.92;100833.02;1748870;81;21876;-77
2022/03/01 04:00:07;;;;;;;5.97;5.15;;;;;;;-1.44;71.92;100826.98;1748161;81;21147;-78
2022/03/01 04:02:33;;;;;;;8.45;5.53;;;;;;;-1.43;71.94;100826.14;1748615;81;21086;-78
2022/03/01 04:05:00;;;;;;;5.30;4.80;;;;;;;-1.41;72.12;100821.91;1748563;82;21479;-78
2022/03/01 04:07:27;;;;;;;6.33;4.40;;;;;;;-1.45;72.09;100818.77;1748518;82;21948;-79
2022/03/01 04:09:53;;;;;;;8.68;4.58;;;;;;;-1.45;72.12;100814.89;1748346;82;21129;-78
2022/03/01 04:12:20;;;;;;;6.42;4.87;;;;;;;-1.46;72.25;100813.13;1748418;81;21003;-78
2022/03/01 04:14:47;;;;;;;6.78;5.17;;;;;;;-1.49;72.30;100811.33;1753097;81;21079;-78
2022/03/01 04:17:13;;;;;;;6.45;4.37;;;;;;;-1.48;72.61;100809.62;1753682;81;21116;-78
2022/03/01 04:19:39;;;;;;;5.47;4.70;;;;;;;-1.47;72.41;100805.80;1753515;81;21098;-77
2022/03/01 04:22:06;;;;;;;5.08;4.40;;;;;;;-1.46;72.54;100802.80;1750858;81;21063;-78
2022/03/01 04:24:33;;;;;;;5.17;4.35;;;;;;;-1.50;72.85;100805.30;1747834;82;21062;-78
2022/03/01 04:26:59;;;;;;;5.95;4.75;;;;;;;-1.57;72.90;100799.44;1752321;81;21542;-78
2022/03/01 04:29:26;;;;;;;5.37;4.87;;;;;;;-1.61;73.01;100804.03;1740533;81;21123;-79
2022/03/01 04:31:52;;;;;;;5.95;4.80;;;;;;;-1.63;73.09;100801.82;1734314;81;21114;-75
2022/03/01 04:34:18;;;;;;;5.47;4.97;;;;;;;-1.64;73.43;100804.34;1728226;81;21082;-78
2022/03/01 04:36:44;;;;;;;6.58;4.80;;;;;;;-1.67;73.65;100799.94;1723919;81;21125;-77
2022/03/01 04:39:11;;;;;;;6.20;5.35;;;;;;;-1.66;73.63;100802.09;1724048;81;21898;-77
2022/03/01 04:41:38;;;;;;;7.15;4.72;;;;;;;-1.64;73.83;100801.34;1725918;81;21052;-78
2022/03/01 04:44:08;;;;;;;5.92;5.00;;;;;;;-1.66;74.13;100800.41;1746504;80;21038;-78
2022/03/01 04:46:33;;;;;;;5.75;4.78;;;;;;;-1.68;74.40;100802.07;1722736;81;21110;-78
2022/03/01 04:49:00;;;;;;;5.08;4.58;;;;;;;-1.68;74.47;100803.36;1740791;81;21696;-79
2022/03/01 04:51:26;;;;;;;6.50;4.85;;;;;;;-1.69;74.44;100806.75;1734625;81;21075;-78
2022/03/01 04:53:53;;;;;;;4.90;4.50;;;;;;;-1.67;74.46;100807.68;1734251;81;21123;-79
2022/03/01 04:56:20;;;;;;;7.15;4.72;;;;;;;-1.68;74.33;100804.65;1729587;81;21046;-79
2022/03/01 04:58:46;;;;;;;4.72;4.33;;;;;;;-1.67;74.26;100806.39;1735796;81;21206;-75
2022/03/01 05:01:13;;;;;;;5.62;4.92;;;;;;;-1.63;74.38;100800.53;1749035;81;21102;-78
2022/03/01 05:03:39;;;;;;;4.80;4.33;;;;;;;-1.65;75.48;100809.02;1750311;81;21090;-80
2022/03/01 05:06:06;;;;;;;6.00;5.10;;;;;;;-1.62;76.03;100811.72;1748219;81;21126;-78
2022/03/01 05:08:32;;;;;;;4.60;4.20;;;;;;;-1.60;76.20;100813.52;1727839;81;22113;-79
2022/03/01 05:10:59;;;;;;;7.15;4.40;;;;;;;-1.59;76.32;100811.84;1726746;81;21083;-82
2022/03/01 05:13:26;;;;;;;5.42;4.35;;;;;;;-1.58;76.40;100814.47;1703406;82;21070;-79
2022/03/01 05:15:52;;;;;;;4.40;3.98;;;;;;;-1.54;76.50;100818.91;1706672;83;21079;-80
2022/03/01 05:18:19;;;;;;;6.80;4.87;;;;;;;-1.51;76.51;100808.70;1742967;82;21129;-80
2022/03/01 05:20:45;;;;;;;4.10;3.80;;;;;;;-1.45;76.44;100818.34;1736408;82;21074;-80
2022/03/01 05:23:12;;;;;;;4.75;4.35;;;;;;;-1.43;76.34;100821.88;1749113;82;21040;-77
2022/03/01 05:25:39;;;;;;;5.35;4.65;;;;;;;-1.40;76.21;100816.80;1748956;82;20987;-76
2022/03/01 05:28:05;;;;;;;4.65;4.28;;;;;;;-1.42;76.02;100814.58;1748968;82;21114;-78
2022/03/01 05:30:32;;;;;;;4.33;3.93;;;;;;;-1.44;76.22;100812.79;1738902;82;21113;-76
2022/03/01 05:32:58;;;;;;;4.97;4.42;;;;;;;-1.41;75.97;100812.48;1742608;80;21100;-78
2022/03/01 05:35:28;;;;;;;5.20;4.00;;;;;;;-1.38;75.58;100806.52;1736142;82;21067;-77
2022/03/01 05:37:55;;;;;;;6.03;4.53;;;;;;;-1.38;75.66;100810.40;1729984;82;21050;-77
2022/03/01 05:40:26;;;;;;;4.28;3.87;;;;;;;-1.38;75.46;100815.17;1738380;81;21028;-78
2022/03/01 05:42:54;;;;;;;4.50;4.10;;;;;;;-1.38;75.53;100810.40;1737144;82;21053;-77
2022/03/01 05:45:22;;;;;;;4.97;4.25;;;;;;;-1.39;75.42;100804.80;1732912;80;21082;-77
2022/03/01 05:47:48;;;;;;;6.00;4.05;;;;;;;-1.36;75.33;100800.99;1729048;82;21408;-78
2022/03/01 05:50:15;;;;;;;4.92;4.42;;;;;;;-1.35;75.27;100802.77;1725783;82;21122;-80
2022/03/01 05:52:42;;;;;;;5.08;4.42;;;;;;;-1.29;75.12;100804.27;1726125;81;21095;-79
2022/03/01 05:55:09;;;;;;;5.12;4.15;;;;;;;-1.27;74.89;100800.45;1689245;83;21126;-79
2022/03/01 05:57:36;;;;;;;5.17;3.90;;;;;;;-1.23;74.80;100795.42;1733322;82;21106;-85
2022/03/01 06:00:06;;;;;;;6.62;4.47;;;;;;;-1.21;74.60;100793.80;1725013;80;21142;-84
2022/03/01 06:02:35;;;;;;;5.35;4.37;;;;;;;-1.20;74.42;100799.41;1687068;83;21018;-84
2022/03/01 06:05:01;;;;;;;4.05;3.75;;;;;;;-1.20;74.38;100794.66;1726088;82;21138;-80
2022/03/01 06:07:28;;;;;;;5.55;4.78;;;;;;;-1.22;74.24;100790.73;1723544;82;21124;-82
2022/03/01 06:09:56;;;;;;;4.45;3.95;;;;;;;-1.20;74.25;100790.79;1726204;82;21071;-85
2022/03/01 06:12:22;;;;;;;4.08;3.75;;;;;;;-1.18;74.20;100792.62;1700043;82;21212;-81
2022/03/01 06:14:49;;;;;;;6.12;4.25;;;;;;;-1.17;74.18;100791.77;1687111;83;21278;-84
2022/03/01 06:17:16;;;;;;;5.47;4.75;;;;;;;-1.16;74.23;100790.95;1737311;82;21570;-77
2022/03/01 06:19:43;;;;;;;4.75;4.22;;;;;;;-1.12;74.09;100791.93;1737760;81;21657;-80
2022/03/01 06:22:09;;;;;;;7.87;4.42;;;;;;;-1.09;74.19;100792.03;1738096;82;21107;-80
2022/03/01 06:24:42;;;;;;;5.95;4.92;;;;;;;-1.02;74.29;100799.58;1740674;82;21653;-77
2022/03/01 06:27:09;;;;;;;5.50;4.45;;;;;;;-0.98;74.67;100788.50;1738083;81;21090;-80
2022/03/01 06:29:36;;;;;;;5.05;4.47;;;;;;;-0.98;75.00;100797.55;1717840;81;21005;-77
2022/03/01 06:32:05;;;;;;;5.30;4.30;;;;;;;-0.97;75.53;100795.02;1692401;82;21066;-83
2022/03/01 06:34:31;;;;;;;4.72;4.30;;;;;;;-0.93;75.36;100795.98;1687247;83;21577;-78
2022/03/01 06:36:58;;;;;;;5.35;4.85;;;;;;;-0.94;74.96;100795.55;1720320;82;21071;-75
2022/03/01 06:39:25;;;;;;;6.83;5.72;;;;;;;-0.91;74.71;100791.73;1722260;82;21036;-81
2022/03/01 06:41:52;;;;;;;11.70;8.35;;;;;;;-0.90;74.48;100788.34;1737090;81;21043;-79
2022/03/01 06:44:19;;;;;;;8.63;5.65;;;;;;;-0.88;74.37;100789.26;1736067;82;21104;-78
2022/03/01 06:46:45;;;;;;;6.17;4.30;;;;;;;-0.82;74.47;100792.05;1743664;80;21067;-75
2022/03/01 06:49:12;;;;;;;5.58;4.55;;;;;;;-0.75;74.37;100791.83;1737707;82;21146;-75
2022/03/01 06:51:39;;;;;;;5.65;5.15;;;;;;;-0.74;74.34;100789.69;1739109;82;21063;-79
2022/03/01 06:54:05;;;;;;;6.90;5.05;;;;;;;-0.76;73.91;100790.97;1752388;81;21110;-80
2022/03/01 06:56:31;;;;;;;5.30;4.55;;;;;;;-0.76;73.84;100788.77;1739118;81;21502;-78
2022/03/01 06:58:58;;;;;;;6.40;4.60;;;;;;;-0.76;73.86;100789.67;1738149;81;21063;-78
2022/03/01 07:01:24;;;;;;;5.60;4.90;;;;;;;-0.71;73.77;100788.50;1738037;81;21096;-78
2022/03/01 07:03:51;;;;;;;6.03;5.17;;;;;;;-0.71;73.64;100790.22;1717907;80;21058;-79
2022/03/01 07:06:17;;;;;;;5.72;5.12;;;;;;;-0.70;73.57;100793.28;1713879;82;21528;-78
2022/03/01 07:08:45;;;;;;;7.15;4.90;;;;;;;-0.68;73.57;100791.61;1719911;81;21140;-78
2022/03/01 07:11:12;;;;;;;5.45;4.85;;;;;;;-0.68;73.47;100791.19;1709101;83;21488;-78
2022/03/01 07:13:39;;;;;;;5.65;5.05;;;;;;;-0.68;73.95;100789.03;1727402;82;21633;-77
2022/03/01 07:16:06;;;;;;;5.78;5.05;;;;;;;-0.68;73.59;100794.20;1740343;82;21101;-77
2022/03/01 07:18:32;;;;;;;8.23;5.37;;;;;;;-0.68;73.63;100798.08;1740551;81;21563;-76
2022/03/01 07:20:58;;;;;;;6.97;5.35;;;;;;;-0.75;73.59;100796.58;1740241;81;21123;-75
2022/03/01 07:23:25;;;;;;;6.55;5.53;;;;;;;-0.79;74.00;100799.91;1740778;82;21620;-77
2022/03/01 07:25:52;;;;;;;5.20;4.67;;;;;;;-0.80;73.77;100798.14;1740969;81;21112;-76
2022/03/01 07:28:18;;;;;;;6.65;5.08;;;;;;;-0.82;73.86;100793.77;1740614;82;21085;-76
2022/03/01 07:30:44;;;;;;;5.65;5.05;;;;;;;-0.85;73.71;100795.82;1729580;81;21080;-79
2022/03/01 07:33:11;;;;;;;7.97;4.60;;;;;;;-0.86;73.71;100791.89;1758676;80;22145;-77
2022/03/01 07:35:37;;;;;;;7.05;5.30;;;;;;;-0.87;73.72;100796.20;1766396;80;21013;-77
2022/03/01 07:38:04;;;;;;;5.78;5.20;;;;;;;-0.84;73.80;100790.23;1738135;82;21081;-76
2022/03/01 07:40:30;;;;;;;7.33;5.70;;;;;;;-0.82;73.81;100790.76;1738392;82;21166;-77
2022/03/01 07:42:56;;;;;;;5.80;4.67;;;;;;;-0.79;73.77;100783.11;1735743;81;21107;-77
2022/03/01 07:45:23;;;;;;;6.05;5.25;;;;;;;-0.75;73.78;100787.95;1736372;82;21849;-77
2022/03/01 07:47:51;;;;;;;7.37;6.55;;;;;;;-0.71;73.63;100792.38;1737784;81;21144;-77
2022/03/01 07:50:17;;;;;;;6.40;5.35;;;;;;;-0.69;73.66;100793.72;1739720;81;21550;-77
2022/03/01 07:52:44;;;;;;;7.00;5.55;;;;;;;-0.66;73.62;100805.03;1740892;81;21275;-79
2022/03/01 07:55:10;;;;;;;6.75;5.53;;;;;;;-0.63;73.59;100800.39;1740810;81;21100;-76
2022/03/01 07:57:37;;;;;;;5.95;5.30;;;;;;;-0.61;73.50;100802.17;1734933;81;21621;-78
2022/03/01 08:00:24;;;;;;;8.95;6.03;;;;;;;-0.60;73.29;100796.61;1735910;81;21314;-79
2022/03/01 08:02:52;;;;;;;6.60;5.25;;;;;;;-0.62;73.24;100799.57;1643772;86;33474;-79
2022/03/01 08:05:18;;;;;;;6.80;5.58;;;;;;;-0.64;73.21;100798.62;1663795;85;21581;-79
2022/03/01 08:07:45;;;;;;;8.00;5.42;;;;;;;-0.63;73.17;100795.22;1649128;86;21086;-78
2022/03/01 08:10:12;;;;;;;6.62;5.50;;;;;;;-0.63;73.23;100799.09;1678404;85;21565;-85
2022/03/01 08:12:40;;;;;;;8.78;6.30;;;;;;;-0.63;73.23;100796.09;1675003;84;21156;-77
2022/03/01 08:15:07;;;;;;;6.08;5.42;;;;;;;-0.60;73.22;100796.19;1676075;84;21059;-80
2022/03/01 08:17:34;;;;;;;6.67;5.05;;;;;;;-0.60;73.19;100793.60;1688659;83;21487;-78
2022/03/01 08:20:01;;;;;;;6.10;5.47;;;;;;;-0.63;73.23;100796.09;1700290;83;21109;-78
2022/03/01 08:22:27;;;;;;;6.22;5.62;;;;;;;-0.64;73.30;100802.11;1672150;85;21140;-79
2022/03/01 08:24:54;;;;;;;6.25;5.17;;;;;;;-0.69;73.34;100798.89;1681907;85;21097;-78
2022/03/01 08:27:20;;;;;;;6.72;5.30;;;;;;;-0.69;73.42;100791.14;1682333;84;21130;-82
2022/03/01 08:29:47;;;;;;;7.55;5.70;;;;;;;-0.69;73.47;100791.14;1681054;84;21098;-78
2022/03/01 08:32:14;;;;;;;7.80;6.00;;;;;;;-0.68;73.57;100789.03;1678287;84;21149;-80
2022/03/01 08:34:40;;;;;;;10.45;7.22;;;;;;;-0.68;73.52;100787.73;1660652;83;21977;-79
2022/03/01 08:37:07;;;;;;;12.37;5.92;;;;;;;-0.65;73.61;100786.55;1664359;85;21094;-77
2022/03/01 08:39:33;;;;;;;8.40;5.92;;;;;;;-0.64;73.56;100777.94;1675643;85;21119;-71
2022/03/01 08:42:00;;;;;;;6.83;6.12;;;;;;;-0.62;73.63;100775.02;1676059;85;22051;-80
2022/03/01 08:44:26;;;;;;;7.42;5.67;;;;;;;-0.61;73.75;100778.05;1664244;85;21043;-82
2022/03/01 08:46:53;;;;;;;6.58;5.90;;;;;;;-0.58;73.77;100778.14;1675986;85;21132;-71
2022/03/01 08:49:19;;;;;;;6.95;5.20;;;;;;;-0.57;73.66;100787.66;1673770;85;22576;-80
2022/03/01 08:51:46;;;;;;;8.93;5.62;;;;;;;-0.53;73.65;100783.04;1679864;85;21102;-81
2022/03/01 08:54:12;;;;;;;10.50;6.15;;;;;;;-0.49;73.61;100778.41;1679930;83;21084;-82
2022/03/01 08:56:40;;;;;;;10.20;6.80;;;;;;;-0.47;73.57;100775.87;1653294;83;21146;-79
2022/03/01 08:59:06;;;;;;;8.03;5.72;;;;;;;-0.45;73.63;100775.10;1664804;85;21926;-79
2022/03/01 09:01:33;;;;;;;7.08;5.92;;;;;;;-0.42;73.56;100779.47;1685576;84;20991;-78
2022/03/01 09:04:00;;;;;;;8.50;5.87;;;;;;;-0.40;73.51;100784.30;1691799;84;21140;-77
2022/03/01 09:06:26;;;;;;;6.87;5.67;;;;;;;-0.38;73.52;100774.45;1694491;84;21137;-78
2022/03/01 09:08:54;;;;;;;5.78;5.20;;;;;;;-0.39;73.51;100775.30;1690200;83;21015;-77
2022/03/01 09:11:21;;;;;;;6.35;5.30;;;;;;;-0.36;73.59;100778.80;1690817;83;21801;-78
2022/03/01 09:13:49;;;;;;;7.00;6.00;;;;;;;-0.35;73.54;100772.78;1694793;83;21003;-81
2022/03/01 09:16:15;;;;;;;7.53;6.12;;;;;;;-0.31;73.62;100777.23;1694469;84;21684;-78
2022/03/01 09:18:43;;;;;;;8.35;6.97;;;;;;;-0.26;73.57;100773.94;1712497;83;21074;-79
2022/03/01 09:21:09;;;;;;;8.40;6.40;;;;;;;-0.25;73.42;100774.83;1694350;84;21145;-79
2022/03/01 09:23:37;;;;;;;7.33;5.25;;;;;;;-0.24;73.39;100770.10;1687526;83;21129;-78
2022/03/01 09:26:03;;;;;;;7.33;5.35;;;;;;;-0.25;73.31;100766.65;1683121;83;21636;-79
2022/03/01 09:28:30;;;;;;;7.95;6.10;;;;;;;-0.23;73.37;100767.98;1691500;84;21058;-78
2022/03/01 09:30:56;;;;;;;6.80;5.62;;;;;;;-0.24;73.90;100771.39;1694189;84;21627;-79
2022/03/01 09:33:23;;;;;;;7.58;6.00;;;;;;;-0.24;73.59;100764.92;1692181;83;21570;-79
2022/03/01 09:35:49;;;;;;;6.92;6.15;;;;;;;-0.22;73.59;100761.57;1687843;84;21496;-78
2022/03/01 09:38:15;;;;;;;8.45;6.42;;;;;;;-0.21;73.64;100761.14;1673285;84;21070;-78
2022/03/01 09:40:47;;;;;;;6.83;6.12;;;;;;;-0.20;73.65;100757.73;1686715;84;21046;-79
2022/03/01 09:43:15;;;;;;;8.48;5.85;;;;;;;-0.16;73.70;100756.98;1681197;84;21088;-78
2022/03/01 09:45:42;;;;;;;6.85;6.08;;;;;;;-0.10;73.60;100753.68;1689979;83;21042;-77
2022/03/01 09:48:09;;;;;;;8.70;6.30;;;;;;;-0.05;73.59;100758.17;1666679;86;21152;-79
2022/03/01 09:50:36;;;;;;;6.42;5.80;;;;;;;0.00;73.46;100753.14;1668727;84;21053;-79
2022/03/01 09:53:04;;;;;;;8.08;6.10;;;;;;;0.01;73.39;100751.41;1632526;86;21083;-81
2022/03/01 09:55:32;;;;;;;8.55;6.42;;;;;;;0.03;73.29;100754.48;1632012;87;21098;-76
2022/03/01 09:57:59;;;;;;;9.33;5.85;;;;;;;0.06;73.24;100742.07;1629894;87;21085;-71
2022/03/01 10:00:26;;;;;;;6.72;6.00;;;;;;;0.06;73.08;100742.94;1638656;87;21168;-77
2022/03/01 10:02:57;;;;;;;6.53;5.60;;;;;;;0.10;73.02;100752.95;1658150;86;21598;-79
2022/03/01 10:05:34;;;;;;;6.50;5.90;;;;;;;0.11;72.96;100743.07;1649955;86;22502;-76
2022/03/01 10:08:09;;;;;;;6.87;5.60;;;;;;;0.13;72.96;100741.39;1645878;86;21060;-76
2022/03/01 10:10:38;;;;;;;8.13;5.17;;;;;;;0.14;72.77;100737.56;1622162;88;21101;-77
2022/03/01 10:13:05;;;;;;;6.70;5.92;;;;;;;0.11;72.77;100741.34;1667586;84;21135;-78
2022/03/01 10:15:32;;;;;;;7.95;6.58;;;;;;;0.11;72.69;100739.19;1667877;84;21503;-76
2022/03/01 10:18:06;;;;;;;7.58;6.67;;;;;;;0.10;72.90;100740.01;1661931;84;21580;-76
2022/03/01 10:20:32;;;;;;;8.30;6.90;;;;;;;0.16;72.94;100741.48;1670499;84;21097;-76
2022/03/01 10:22:59;;;;;;;8.33;5.78;;;;;;;0.21;72.88;100732.13;1677569;84;21995;-77
2022/03/01 10:25:26;;;;;;;8.10;6.58;;;;;;;0.25;72.75;100739.13;1672661;83;21205;-75
2022/03/01 10:27:53;;;;;;;7.25;6.55;;;;;;;0.26;72.51;100738.30;1667985;84;21387;-76
2022/03/01 10:30:30;;;;;;;7.55;6.33;;;;;;;0.21;72.46;100729.55;1666567;84;21134;-74
2022/03/01 10:33:14;;;;;;;8.53;6.08;;;;;;;0.22;72.54;100723.55;1669323;83;21118;-73
2022/03/01 10:35:45;;;;;;;8.45;6.67;;;;;;;0.26;72.57;100725.36;1662828;84;21110;-76
2022/03/01 10:38:11;;;;;;;9.23;6.37;;;;;;;0.27;72.47;100728.42;1664881;84;21117;-75
2022/03/01 10:40:39;;;;;;;7.17;6.47;;;;;;;0.26;72.45;100727.08;1662122;84;21097;-74
2022/03/01 10:43:13;;;;;;;10.13;6.65;;;;;;;0.24;72.57;100724.45;1661559;84;21145;-74
2022/03/01 10:45:47;;;;;;;8.65;6.92;;;;;;;0.26;72.57;100720.19;1671792;83;21158;-74
2022/03/01 10:48:30;;;;;;;11.60;7.00;;;;;;;0.26;72.57;100718.89;1673528;84;21070;-75
2022/03/01 10:51:04;;;;;;;9.98;6.87;;;;;;;0.26;72.53;100720.19;1689699;84;21189;-74
2022/03/01 10:53:36;;;;;;;11.65;7.55;;;;;;;0.23;72.46;100712.33;1685715;84;21106;-74
2022/03/01 10:56:08;;;;;;;7.87;7.03;;;;;;;0.20;72.56;100716.13;1687945;84;21070;-74
2022/03/01 10:58:36;;;;;;;11.55;7.40;;;;;;;0.22;72.66;100716.17;1689797;84;21584;-76
2022/03/01 11:01:05;;;;;;;9.43;7.08;;;;;;;0.23;72.57;100716.22;1685277;84;21093;-75
2022/03/01 11:03:32;;;;;;;9.80;7.40;;;;;;;0.26;72.61;100716.73;1672694;84;21130;-75
2022/03/01 11:06:00;;;;;;;8.70;7.00;;;;;;;0.28;72.63;100713.33;1689336;84;21149;-76
2022/03/01 11:08:34;;;;;;;9.10;7.20;;;;;;;0.34;72.62;100709.62;1692199;84;21043;-75
2022/03/01 11:11:04;;;;;;;9.63;7.12;;;;;;;0.40;72.51;100705.44;1686727;84;21145;-74
2022/03/01 11:13:36;;;;;;;9.63;7.45;;;;;;;0.42;72.50;100701.16;1671288;84;21034;-73
2022/03/01 11:16:35;;;;;;;10.13;7.42;;;;;;;0.47;72.53;100696.98;1678917;83;21200;-76
2022/03/01 11:19:38;;;;;;;7.62;6.87;;;;;;;0.52;72.40;100700.55;1668752;84;21098;-75
2022/03/01 11:22:05;;;;;;;9.40;7.40;;;;;;;0.61;72.34;100691.73;1684678;84;21626;-76
2022/03/01 11:31:31;;;;;;;8.25;7.03;;;;;;;0.79;71.98;100700.78;1695033;83;21150;-75
2022/03/01 11:34:16;;;;;;;11.08;7.22;;;;;;;0.82;71.55;100687.91;1684053;84;21042;-77